sensor_id;sensor_type;location;lat;lon;timestamp;pressure;altitude;pressure_sealevel;temperature;humidity
6532;BME280;3299;42.004;24.868;2023-02-26T00:00:12;97186.13;;;16.57;44.11
6532;BME280;3299;42.004;24.868;2023-02-26T00:02:43;97232.28;;;16.87;44.26
6532;BME280;3299;42.004;24.868;2023-02-26T00:05:13;97243.22;;;16.90;43.82
6532;BME280;3299;42.004;24.868;2023-02-26T00:07:39;97208.25;;;16.69;44.01
6532;BME280;3299;42.004;24.868;2023-02-26T00:10:07;97187.72;;;16.58;44.44
6532;BME280;3299;42.004;24.868;2023-02-26T00:12:33;97244.72;;;16.85;44.40
6532;BME280;3299;42.004;24.868;2023-02-26T00:14:59;97224.16;;;16.82;44.36
6532;BME280;3299;42.004;24.868;2023-02-26T00:17:28;97241.75;;;16.88;44.10
6532;BME280;3299;42.004;24.868;2023-02-26T00:19:56;97180.44;;;16.45;44.61
6532;BME280;3299;42.004;24.868;2023-02-26T00:22:22;97192.72;;;16.45;44.37
6532;BME280;3299;42.004;24.868;2023-02-26T00:24:47;97244.75;;;16.77;43.96
6532;BME280;3299;42.004;24.868;2023-02-26T00:27:13;97187.47;;;16.45;44.31
6532;BME280;3299;42.004;24.868;2023-02-26T00:29:39;97250.88;;;16.69;44.27
6532;BME280;3299;42.004;24.868;2023-02-26T00:32:04;97242.03;;;16.70;44.19
6532;BME280;3299;42.004;24.868;2023-02-26T00:34:30;97232.06;;;16.66;44.18
6532;BME280;3299;42.004;24.868;2023-02-26T00:39:48;97253.63;;;16.68;44.79
6532;BME280;3299;42.004;24.868;2023-02-26T00:42:15;97209.34;;;16.36;44.45
6532;BME280;3299;42.004;24.868;2023-02-26T00:44:41;97211.16;;;16.35;44.39
6532;BME280;3299;42.004;24.868;2023-02-26T00:47:38;97262.00;;;16.63;44.63
6532;BME280;3299;42.004;24.868;2023-02-26T00:50:24;97232.84;;;16.44;44.92
6532;BME280;3299;42.004;24.868;2023-02-26T00:55:40;97207.25;;;16.31;44.67
6532;BME280;3299;42.004;24.868;2023-02-26T00:58:05;97255.00;;;16.56;44.60
6532;BME280;3299;42.004;24.868;2023-02-26T01:00:31;97206.81;;;16.20;45.03
6532;BME280;3299;42.004;24.868;2023-02-26T01:02:56;97252.09;;;16.51;45.18
6532;BME280;3299;42.004;24.868;2023-02-26T01:05:22;97204.53;;;16.17;45.26
6532;BME280;3299;42.004;24.868;2023-02-26T01:08:01;97208.13;;;16.08;45.73
6532;BME280;3299;42.004;24.868;2023-02-26T01:10:29;97241.50;;;16.28;46.11
6532;BME280;3299;42.004;24.868;2023-02-26T01:12:55;97245.16;;;16.19;47.01
6532;BME280;3299;42.004;24.868;2023-02-26T01:15:22;97225.28;;;16.02;47.19
6532;BME280;3299;42.004;24.868;2023-02-26T01:20:26;97226.16;;;15.87;48.18
6532;BME280;3299;42.004;24.868;2023-02-26T01:25:27;97248.00;;;15.86;48.82
6532;BME280;3299;42.004;24.868;2023-02-26T01:27:54;97243.09;;;15.83;49.15
6532;BME280;3299;42.004;24.868;2023-02-26T01:30:22;97241.31;;;15.83;49.09
6532;BME280;3299;42.004;24.868;2023-02-26T01:35:46;97192.78;;;15.50;49.58
6532;BME280;3299;42.004;24.868;2023-02-26T01:43:38;97229.56;;;15.87;49.54
6532;BME280;3299;42.004;24.868;2023-02-26T01:48:53;97229.47;;;15.57;50.84
6532;BME280;3299;42.004;24.868;2023-02-26T01:54:04;97231.38;;;15.23;52.71
6532;BME280;3299;42.004;24.868;2023-02-26T01:56:30;97224.56;;;15.22;52.94
6532;BME280;3299;42.004;24.868;2023-02-26T01:58:55;97170.16;;;14.95;51.93
6532;BME280;3299;42.004;24.868;2023-02-26T02:01:21;97176.00;;;14.89;53.46
6532;BME280;3299;42.004;24.868;2023-02-26T02:03:46;97213.28;;;15.05;53.79
6532;BME280;3299;42.004;24.868;2023-02-26T02:06:23;97203.34;;;15.01;53.40
6532;BME280;3299;42.004;24.868;2023-02-26T02:08:50;97216.88;;;15.04;53.19
6532;BME280;3299;42.004;24.868;2023-02-26T02:11:16;97216.38;;;15.01;53.97
6532;BME280;3299;42.004;24.868;2023-02-26T02:13:55;97230.03;;;14.95;54.33
6532;BME280;3299;42.004;24.868;2023-02-26T02:19:37;97219.78;;;14.77;55.01
6532;BME280;3299;42.004;24.868;2023-02-26T02:21:43;97167.00;;;14.59;54.98
6532;BME280;3299;42.004;24.868;2023-02-26T02:26:52;97220.56;;;14.78;55.46
6532;BME280;3299;42.004;24.868;2023-02-26T02:29:45;97218.94;;;14.77;55.44
6532;BME280;3299;42.004;24.868;2023-02-26T02:32:07;97217.31;;;14.76;55.65
6532;BME280;3299;42.004;24.868;2023-02-26T02:34:39;97207.50;;;14.62;56.39
6532;BME280;3299;42.004;24.868;2023-02-26T02:40:12;97209.13;;;14.55;57.06
6532;BME280;3299;42.004;24.868;2023-02-26T02:42:45;97167.31;;;14.15;58.00
6532;BME280;3299;42.004;24.868;2023-02-26T02:45:18;97197.66;;;14.32;58.31
6532;BME280;3299;42.004;24.868;2023-02-26T02:47:47;97212.00;;;14.36;58.23
6532;BME280;3299;42.004;24.868;2023-02-26T02:51:00;97214.88;;;14.25;59.95
6532;BME280;3299;42.004;24.868;2023-02-26T02:53:49;97214.41;;;14.29;59.36
6532;BME280;3299;42.004;24.868;2023-02-26T02:56:22;97211.16;;;14.27;59.43
6532;BME280;3299;42.004;24.868;2023-02-26T02:59:13;97198.50;;;14.40;58.70
6532;BME280;3299;42.004;24.868;2023-02-26T03:01:41;97194.41;;;14.30;59.51
6532;BME280;3299;42.004;24.868;2023-02-26T03:04:10;97203.22;;;14.37;59.19
6532;BME280;3299;42.004;24.868;2023-02-26T03:06:38;97156.41;;;14.03;59.09
6532;BME280;3299;42.004;24.868;2023-02-26T03:09:06;97209.41;;;14.36;59.08
6532;BME280;3299;42.004;24.868;2023-02-26T03:11:32;97199.91;;;14.27;59.30
6532;BME280;3299;42.004;24.868;2023-02-26T03:13:58;97143.69;;;13.92;59.53
6532;BME280;3299;42.004;24.868;2023-02-26T03:16:43;97204.97;;;14.28;59.49
6532;BME280;3299;42.004;24.868;2023-02-26T03:22:14;97205.94;;;14.27;60.06
6532;BME280;3299;42.004;24.868;2023-02-26T03:24:50;97163.84;;;13.98;59.43
6532;BME280;3299;42.004;24.868;2023-02-26T03:27:39;97184.53;;;14.08;59.61
6532;BME280;3299;42.004;24.868;2023-02-26T03:30:13;97190.97;;;14.21;59.87
6532;BME280;3299;42.004;24.868;2023-02-26T03:33:00;97150.66;;;13.92;59.90
6532;BME280;3299;42.004;24.868;2023-02-26T03:38:30;97189.63;;;14.17;59.99
6532;BME280;3299;42.004;24.868;2023-02-26T03:41:01;97131.50;;;13.93;59.76
6532;BME280;3299;42.004;24.868;2023-02-26T03:43:35;97170.94;;;14.22;59.42
6532;BME280;3299;42.004;24.868;2023-02-26T03:46:04;97145.63;;;14.24;59.01
6532;BME280;3299;42.004;24.868;2023-02-26T03:48:33;97174.59;;;14.37;59.02
6532;BME280;3299;42.004;24.868;2023-02-26T03:51:03;97169.09;;;14.40;58.36
6532;BME280;3299;42.004;24.868;2023-02-26T03:53:33;97129.94;;;14.16;58.89
6532;BME280;3299;42.004;24.868;2023-02-26T03:56:45;97162.75;;;14.42;59.02
6532;BME280;3299;42.004;24.868;2023-02-26T03:58:51;97148.38;;;14.30;60.04
6532;BME280;3299;42.004;24.868;2023-02-26T04:01:22;97156.38;;;14.29;60.20
6532;BME280;3299;42.004;24.868;2023-02-26T04:03:52;97165.16;;;14.36;59.20
6532;BME280;3299;42.004;24.868;2023-02-26T04:06:20;97163.53;;;14.35;59.54
6532;BME280;3299;42.004;24.868;2023-02-26T04:08:46;97087.47;;;13.99;60.17
6532;BME280;3299;42.004;24.868;2023-02-26T04:11:17;97123.38;;;14.04;59.91
6532;BME280;3299;42.004;24.868;2023-02-26T04:13:43;97103.22;;;13.98;60.05
6532;BME280;3299;42.004;24.868;2023-02-26T04:16:09;97136.84;;;14.25;60.06
6532;BME280;3299;42.004;24.868;2023-02-26T04:18:34;97092.50;;;13.93;60.22
6532;BME280;3299;42.004;24.868;2023-02-26T04:21:00;97106.00;;;14.04;60.63
6532;BME280;3299;42.004;24.868;2023-02-26T04:23:25;97117.25;;;14.05;60.98
6532;BME280;3299;42.004;24.868;2023-02-26T04:25:51;97126.69;;;14.14;61.11
6532;BME280;3299;42.004;24.868;2023-02-26T04:28:16;97137.19;;;14.30;61.56
6532;BME280;3299;42.004;24.868;2023-02-26T04:30:42;97114.50;;;14.14;61.50
6532;BME280;3299;42.004;24.868;2023-02-26T04:33:07;97101.63;;;14.05;60.90
6532;BME280;3299;42.004;24.868;2023-02-26T04:35:33;97085.69;;;14.00;61.85
6532;BME280;3299;42.004;24.868;2023-02-26T04:37:58;97077.22;;;13.98;61.34
6532;BME280;3299;42.004;24.868;2023-02-26T04:40:24;97099.97;;;14.04;62.00
6532;BME280;3299;42.004;24.868;2023-02-26T04:42:49;97060.88;;;13.64;62.05
6532;BME280;3299;42.004;24.868;2023-02-26T04:45:15;97125.69;;;13.99;62.29
6532;BME280;3299;42.004;24.868;2023-02-26T04:47:40;97063.41;;;13.56;62.88
6532;BME280;3299;42.004;24.868;2023-02-26T04:50:06;97079.50;;;13.59;63.41
6532;BME280;3299;42.004;24.868;2023-02-26T04:52:32;97096.28;;;13.65;63.49
6532;BME280;3299;42.004;24.868;2023-02-26T04:55:00;97072.16;;;13.47;63.77
6532;BME280;3299;42.004;24.868;2023-02-26T04:57:26;97116.94;;;13.74;63.79
6532;BME280;3299;42.004;24.868;2023-02-26T04:59:51;97085.19;;;13.55;63.67
6532;BME280;3299;42.004;24.868;2023-02-26T05:02:17;97089.72;;;13.53;63.92
6532;BME280;3299;42.004;24.868;2023-02-26T05:04:43;97106.63;;;13.57;64.72
6532;BME280;3299;42.004;24.868;2023-02-26T05:07:08;97070.44;;;13.30;65.00
6532;BME280;3299;42.004;24.868;2023-02-26T05:09:34;97089.16;;;13.41;64.98
6532;BME280;3299;42.004;24.868;2023-02-26T05:11:59;97089.63;;;13.37;64.93
6532;BME280;3299;42.004;24.868;2023-02-26T05:14:25;97071.50;;;13.19;64.85
6532;BME280;3299;42.004;24.868;2023-02-26T05:16:50;97060.56;;;13.08;64.95
6532;BME280;3299;42.004;24.868;2023-02-26T05:19:16;97081.19;;;13.09;65.57
6532;BME280;3299;42.004;24.868;2023-02-26T05:21:41;97029.38;;;12.82;65.64
6532;BME280;3299;42.004;24.868;2023-02-26T05:24:07;97124.56;;;13.42;65.82
6532;BME280;3299;42.004;24.868;2023-02-26T05:26:32;97064.88;;;12.82;66.44
6532;BME280;3299;42.004;24.868;2023-02-26T05:28:57;97101.38;;;13.15;65.88
6532;BME280;3299;42.004;24.868;2023-02-26T05:31:23;97029.34;;;12.74;65.66
6532;BME280;3299;42.004;24.868;2023-02-26T05:33:49;97069.59;;;12.96;66.23
6532;BME280;3299;42.004;24.868;2023-02-26T05:36:14;97108.72;;;13.28;66.02
6532;BME280;3299;42.004;24.868;2023-02-26T05:38:39;97114.28;;;13.33;64.33
6532;BME280;3299;42.004;24.868;2023-02-26T05:41:05;96987.69;;;12.58;62.94
6532;BME280;3299;42.004;24.868;2023-02-26T05:43:30;97115.00;;;13.43;62.05
6532;BME280;3299;42.004;24.868;2023-02-26T05:45:57;97109.47;;;13.46;61.40
6532;BME280;3299;42.004;24.868;2023-02-26T05:48:23;97098.78;;;13.49;59.60
6532;BME280;3299;42.004;24.868;2023-02-26T05:50:49;97148.88;;;13.92;60.64
6532;BME280;3299;42.004;24.868;2023-02-26T05:53:15;97143.81;;;13.91;61.43
6532;BME280;3299;42.004;24.868;2023-02-26T05:55:40;97148.41;;;13.97;61.74
6532;BME280;3299;42.004;24.868;2023-02-26T05:58:06;97163.72;;;14.00;61.14
6532;BME280;3299;42.004;24.868;2023-02-26T06:00:32;97086.28;;;13.44;61.42
6532;BME280;3299;42.004;24.868;2023-02-26T06:02:57;97176.72;;;14.00;61.50
6532;BME280;3299;42.004;24.868;2023-02-26T06:05:22;97181.09;;;13.99;61.74
6532;BME280;3299;42.004;24.868;2023-02-26T06:07:48;97152.66;;;13.72;61.95
6532;BME280;3299;42.004;24.868;2023-02-26T06:10:13;97192.97;;;14.10;60.80
6532;BME280;3299;42.004;24.868;2023-02-26T06:12:39;97149.03;;;13.91;58.65
6532;BME280;3299;42.004;24.868;2023-02-26T06:15:05;97210.38;;;14.35;58.19
6532;BME280;3299;42.004;24.868;2023-02-26T06:17:32;97204.25;;;14.52;57.42
6532;BME280;3299;42.004;24.868;2023-02-26T06:19:58;97158.00;;;14.30;57.27
6532;BME280;3299;42.004;24.868;2023-02-26T06:22:23;97121.53;;;14.22;57.14
6532;BME280;3299;42.004;24.868;2023-02-26T06:24:48;97205.94;;;14.77;57.16
6532;BME280;3299;42.004;24.868;2023-02-26T06:27:14;97221.56;;;14.85;57.48
6532;BME280;3299;42.004;24.868;2023-02-26T06:29:39;97170.22;;;14.53;58.01
6532;BME280;3299;42.004;24.868;2023-02-26T06:32:05;97158.38;;;14.67;56.75
6532;BME280;3299;42.004;24.868;2023-02-26T06:34:31;97182.16;;;14.80;56.89
6532;BME280;3299;42.004;24.868;2023-02-26T06:36:56;97207.09;;;14.98;57.06
6532;BME280;3299;42.004;24.868;2023-02-26T06:39:22;97194.09;;;15.06;57.45
6532;BME280;3299;42.004;24.868;2023-02-26T06:41:47;97200.44;;;15.04;57.09
6532;BME280;3299;42.004;24.868;2023-02-26T06:44:13;97180.88;;;14.84;57.96
6532;BME280;3299;42.004;24.868;2023-02-26T06:46:38;97166.06;;;14.92;57.69
6532;BME280;3299;42.004;24.868;2023-02-26T06:49:04;97216.53;;;15.23;57.49
6532;BME280;3299;42.004;24.868;2023-02-26T06:51:29;97118.34;;;14.68;57.18
6532;BME280;3299;42.004;24.868;2023-02-26T06:53:55;97158.25;;;14.84;58.43
6532;BME280;3299;42.004;24.868;2023-02-26T06:56:21;97209.56;;;15.16;59.11
6532;BME280;3299;42.004;24.868;2023-02-26T06:58:47;97207.13;;;15.14;58.45
6532;BME280;3299;42.004;24.868;2023-02-26T07:01:12;97224.84;;;15.19;57.52
6532;BME280;3299;42.004;24.868;2023-02-26T07:03:38;97215.41;;;15.26;57.14
6532;BME280;3299;42.004;24.868;2023-02-26T07:06:05;97163.78;;;14.97;56.89
6532;BME280;3299;42.004;24.868;2023-02-26T07:08:32;97170.81;;;15.05;57.56
6532;BME280;3299;42.004;24.868;2023-02-26T07:10:57;97164.28;;;15.09;55.79
6532;BME280;3299;42.004;24.868;2023-02-26T07:13:23;97207.78;;;15.56;55.23
6532;BME280;3299;42.004;24.868;2023-02-26T07:15:48;97215.09;;;15.61;54.29
6532;BME280;3299;42.004;24.868;2023-02-26T07:18:13;97166.41;;;15.53;53.43
6532;BME280;3299;42.004;24.868;2023-02-26T07:20:40;97217.81;;;15.91;52.94
6532;BME280;3299;42.004;24.868;2023-02-26T07:23:06;97214.06;;;15.94;52.48
6532;BME280;3299;42.004;24.868;2023-02-26T07:25:31;97195.00;;;15.85;51.90
6532;BME280;3299;42.004;24.868;2023-02-26T07:27:57;97231.75;;;16.22;51.72
6532;BME280;3299;42.004;24.868;2023-02-26T07:30:24;97153.78;;;15.81;51.70
6532;BME280;3299;42.004;24.868;2023-02-26T07:32:50;97242.97;;;16.31;51.66
6532;BME280;3299;42.004;24.868;2023-02-26T07:35:15;97242.78;;;16.48;51.37
6532;BME280;3299;42.004;24.868;2023-02-26T07:37:41;97219.97;;;16.42;52.06
6532;BME280;3299;42.004;24.868;2023-02-26T07:40:07;97214.06;;;16.48;51.84
6532;BME280;3299;42.004;24.868;2023-02-26T07:42:33;97223.97;;;16.61;52.21
6532;BME280;3299;42.004;24.868;2023-02-26T07:44:59;97228.78;;;16.72;52.17
6532;BME280;3299;42.004;24.868;2023-02-26T07:47:24;97237.75;;;16.77;52.09
6532;BME280;3299;42.004;24.868;2023-02-26T07:49:49;97231.66;;;16.85;52.09
6532;BME280;3299;42.004;24.868;2023-02-26T07:52:15;97214.88;;;16.79;52.60
6532;BME280;3299;42.004;24.868;2023-02-26T07:54:40;97186.41;;;16.62;52.54
6532;BME280;3299;42.004;24.868;2023-02-26T07:57:09;97201.03;;;16.71;52.62
6532;BME280;3299;42.004;24.868;2023-02-26T07:59:34;97191.75;;;16.68;53.09
6532;BME280;3299;42.004;24.868;2023-02-26T08:02:00;97228.13;;;17.00;52.46
6532;BME280;3299;42.004;24.868;2023-02-26T08:04:25;97187.72;;;16.88;52.10
6532;BME280;3299;42.004;24.868;2023-02-26T08:06:51;97222.59;;;17.18;52.01
6532;BME280;3299;42.004;24.868;2023-02-26T08:09:19;97237.78;;;17.22;51.85
6532;BME280;3299;42.004;24.868;2023-02-26T08:11:45;97228.25;;;17.29;51.89
6532;BME280;3299;42.004;24.868;2023-02-26T08:14:11;97136.50;;;16.79;51.66
6532;BME280;3299;42.004;24.868;2023-02-26T08:16:37;97207.44;;;17.36;51.36
6532;BME280;3299;42.004;24.868;2023-02-26T08:19:03;97209.09;;;17.37;51.57
6532;BME280;3299;42.004;24.868;2023-02-26T08:21:28;97192.06;;;17.18;51.54
6532;BME280;3299;42.004;24.868;2023-02-26T08:23:54;97212.88;;;17.34;51.32
6532;BME280;3299;42.004;24.868;2023-02-26T08:26:19;97224.78;;;17.37;51.02
6532;BME280;3299;42.004;24.868;2023-02-26T08:28:44;97182.06;;;17.22;51.11
6532;BME280;3299;42.004;24.868;2023-02-26T08:31:12;97188.75;;;17.24;50.87
6532;BME280;3299;42.004;24.868;2023-02-26T08:33:38;97228.97;;;17.46;51.07
6532;BME280;3299;42.004;24.868;2023-02-26T08:36:03;97180.00;;;17.17;51.08
6532;BME280;3299;42.004;24.868;2023-02-26T08:38:30;97183.69;;;17.23;51.40
6532;BME280;3299;42.004;24.868;2023-02-26T08:40:55;97197.94;;;17.43;51.25
6532;BME280;3299;42.004;24.868;2023-02-26T08:43:21;97174.13;;;17.38;50.93
6532;BME280;3299;42.004;24.868;2023-02-26T08:45:47;97158.66;;;17.28;50.22
6532;BME280;3299;42.004;24.868;2023-02-26T08:48:13;97158.56;;;17.36;50.16
6532;BME280;3299;42.004;24.868;2023-02-26T08:50:42;97173.03;;;17.47;49.52
6532;BME280;3299;42.004;24.868;2023-02-26T08:53:07;97184.91;;;17.57;48.79
6532;BME280;3299;42.004;24.868;2023-02-26T08:55:33;97208.38;;;17.80;48.93
6532;BME280;3299;42.004;24.868;2023-02-26T08:57:58;97216.06;;;17.96;48.69
6532;BME280;3299;42.004;24.868;2023-02-26T09:00:24;97197.94;;;17.94;48.61
6532;BME280;3299;42.004;24.868;2023-02-26T09:02:49;97130.25;;;17.62;48.03
6532;BME280;3299;42.004;24.868;2023-02-26T09:05:15;97164.44;;;17.90;48.07
6532;BME280;3299;42.004;24.868;2023-02-26T09:07:41;97209.94;;;18.18;47.85
6532;BME280;3299;42.004;24.868;2023-02-26T09:10:07;97199.19;;;18.13;48.16
6532;BME280;3299;42.004;24.868;2023-02-26T09:12:33;97133.13;;;17.82;47.43
6532;BME280;3299;42.004;24.868;2023-02-26T09:15:03;97157.22;;;17.92;47.50
6532;BME280;3299;42.004;24.868;2023-02-26T09:17:29;97180.59;;;18.22;46.86
6532;BME280;3299;42.004;24.868;2023-02-26T09:19:56;97178.00;;;18.37;47.10
6532;BME280;3299;42.004;24.868;2023-02-26T09:22:21;97194.75;;;18.57;47.19
6532;BME280;3299;42.004;24.868;2023-02-26T09:24:46;97227.69;;;18.80;46.31
6532;BME280;3299;42.004;24.868;2023-02-26T09:27:12;97123.59;;;18.39;46.45
6532;BME280;3299;42.004;24.868;2023-02-26T09:29:37;97194.91;;;18.91;45.94
6532;BME280;3299;42.004;24.868;2023-02-26T09:32:03;97217.03;;;19.03;45.59
6532;BME280;3299;42.004;24.868;2023-02-26T09:34:35;97176.81;;;18.75;46.27
6532;BME280;3299;42.004;24.868;2023-02-26T09:37:06;97197.38;;;18.92;45.23
6532;BME280;3299;42.004;24.868;2023-02-26T09:39:32;97207.41;;;19.10;45.12
6532;BME280;3299;42.004;24.868;2023-02-26T09:42:08;97198.31;;;19.27;44.38
6532;BME280;3299;42.004;24.868;2023-02-26T09:44:39;97154.84;;;18.97;45.02
6532;BME280;3299;42.004;24.868;2023-02-26T09:52:33;97212.09;;;19.29;43.93
6532;BME280;3299;42.004;24.868;2023-02-26T09:55:14;97218.63;;;19.39;43.88
6532;BME280;3299;42.004;24.868;2023-02-26T09:57:45;97160.63;;;19.13;43.90
6532;BME280;3299;42.004;24.868;2023-02-26T10:00:23;97221.31;;;19.46;43.94
6532;BME280;3299;42.004;24.868;2023-02-26T10:08:17;97217.63;;;19.68;44.14
6532;BME280;3299;42.004;24.868;2023-02-26T10:13:34;97209.16;;;19.66;43.26
6532;BME280;3299;42.004;24.868;2023-02-26T10:16:04;97195.97;;;19.59;43.77
6532;BME280;3299;42.004;24.868;2023-02-26T10:18:37;97171.41;;;19.39;43.91
6532;BME280;3299;42.004;24.868;2023-02-26T10:21:09;97210.00;;;19.73;43.17
6532;BME280;3299;42.004;24.868;2023-02-26T10:23:58;97203.38;;;19.77;42.94
6532;BME280;3299;42.004;24.868;2023-02-26T10:26:49;97197.59;;;19.88;43.22
6532;BME280;3299;42.004;24.868;2023-02-26T10:34:54;97131.97;;;19.26;43.24
6532;BME280;3299;42.004;24.868;2023-02-26T10:42:46;97207.97;;;19.68;43.47
6532;BME280;3299;42.004;24.868;2023-02-26T10:51:04;97146.88;;;19.05;44.79
6532;BME280;3299;42.004;24.868;2023-02-26T10:53:34;97138.94;;;19.19;44.37
6532;BME280;3299;42.004;24.868;2023-02-26T10:56:08;97131.63;;;19.36;43.52
6532;BME280;3299;42.004;24.868;2023-02-26T10:58:35;97141.63;;;19.53;43.30
6532;BME280;3299;42.004;24.868;2023-02-26T11:01:01;97158.88;;;19.96;42.72
6532;BME280;3299;42.004;24.868;2023-02-26T11:03:37;97161.47;;;20.24;41.70
6532;BME280;3299;42.004;24.868;2023-02-26T11:06:04;97140.50;;;19.96;41.42
6532;BME280;3299;42.004;24.868;2023-02-26T11:08:37;97143.38;;;20.01;41.49
6532;BME280;3299;42.004;24.868;2023-02-26T11:11:04;97120.41;;;19.82;41.90
6532;BME280;3299;42.004;24.868;2023-02-26T11:13:31;97177.25;;;19.96;41.54
6532;BME280;3299;42.004;24.868;2023-02-26T11:16:01;97114.91;;;19.71;42.09
6532;BME280;3299;42.004;24.868;2023-02-26T11:18:38;97172.56;;;19.92;41.82
6532;BME280;3299;42.004;24.868;2023-02-26T11:21:05;97137.63;;;19.57;42.54
6532;BME280;3299;42.004;24.868;2023-02-26T11:23:32;97139.44;;;19.84;42.37
6532;BME280;3299;42.004;24.868;2023-02-26T11:26:16;97169.81;;;20.40;40.52
6532;BME280;3299;42.004;24.868;2023-02-26T11:28:43;97172.53;;;20.60;40.64
6532;BME280;3299;42.004;24.868;2023-02-26T11:31:11;97165.31;;;20.81;40.45
6532;BME280;3299;42.004;24.868;2023-02-26T11:33:43;97137.06;;;20.96;38.93
6532;BME280;3299;42.004;24.868;2023-02-26T11:36:13;97112.75;;;20.88;39.10
6532;BME280;3299;42.004;24.868;2023-02-26T11:38:43;97111.19;;;21.06;38.96
6532;BME280;3299;42.004;24.868;2023-02-26T11:41:10;97139.72;;;21.42;38.21
6532;BME280;3299;42.004;24.868;2023-02-26T11:43:42;97151.44;;;21.65;38.37
6532;BME280;3299;42.004;24.868;2023-02-26T11:46:09;97124.53;;;21.44;37.40
6532;BME280;3299;42.004;24.868;2023-02-26T11:51:02;97149.03;;;21.83;36.80
6532;BME280;3299;42.004;24.868;2023-02-26T11:53:42;97153.69;;;21.75;36.11
6532;BME280;3299;42.004;24.868;2023-02-26T11:56:13;97165.41;;;21.92;36.05
6532;BME280;3299;42.004;24.868;2023-02-26T11:58:42;97166.44;;;21.78;35.62
6532;BME280;3299;42.004;24.868;2023-02-26T12:01:10;97107.31;;;21.48;35.55
6532;BME280;3299;42.004;24.868;2023-02-26T12:03:38;97117.63;;;21.49;35.99
6532;BME280;3299;42.004;24.868;2023-02-26T12:06:05;97166.19;;;21.92;35.40
6532;BME280;3299;42.004;24.868;2023-02-26T12:08:33;97157.06;;;22.08;35.34
6532;BME280;3299;42.004;24.868;2023-02-26T12:14:00;97158.44;;;22.23;35.54
6532;BME280;3299;42.004;24.868;2023-02-26T12:16:35;97163.31;;;22.13;34.93
6532;BME280;3299;42.004;24.868;2023-02-26T12:30:45;97156.06;;;22.09;35.37
6532;BME280;3299;42.004;24.868;2023-02-26T12:33:25;97153.03;;;21.99;34.89
6532;BME280;3299;42.004;24.868;2023-02-26T12:39:56;97181.22;;;21.92;35.10
6532;BME280;3299;42.004;24.868;2023-02-26T12:47:27;97182.63;;;21.29;36.70
6532;BME280;3299;42.004;24.868;2023-02-26T13:06:23;97164.03;;;20.64;38.82
6532;BME280;3299;42.004;24.868;2023-02-26T13:09:05;97181.63;;;20.57;39.08
6532;BME280;3299;42.004;24.868;2023-02-26T13:17:35;97188.22;;;20.34;39.58
6532;BME280;3299;42.004;24.868;2023-02-26T13:20:17;97138.91;;;20.02;40.33
6532;BME280;3299;42.004;24.868;2023-02-26T13:22:48;97116.81;;;19.90;40.07
6532;BME280;3299;42.004;24.868;2023-02-26T13:25:22;97160.66;;;20.17;40.25
6532;BME280;3299;42.004;24.868;2023-02-26T13:27:51;97175.81;;;20.21;40.08
6532;BME280;3299;42.004;24.868;2023-02-26T13:30:42;97204.75;;;20.28;40.26
6532;BME280;3299;42.004;24.868;2023-02-26T13:33:16;97168.16;;;19.92;40.57
6532;BME280;3299;42.004;24.868;2023-02-26T13:35:43;97208.03;;;20.36;40.86
6532;BME280;3299;42.004;24.868;2023-02-26T13:38:27;97218.13;;;20.39;39.67
6532;BME280;3299;42.004;24.868;2023-02-26T13:46:25;97238.03;;;20.21;40.64
6532;BME280;3299;42.004;24.868;2023-02-26T13:51:43;97192.97;;;19.90;40.58
6532;BME280;3299;42.004;24.868;2023-02-26T13:59:30;97212.13;;;19.84;40.19
6532;BME280;3299;42.004;24.868;2023-02-26T14:05:25;97190.88;;;19.51;40.71
6532;BME280;3299;42.004;24.868;2023-02-26T14:08:07;97223.56;;;19.49;41.33
6532;BME280;3299;42.004;24.868;2023-02-26T14:10:59;97150.97;;;19.14;41.24
6532;BME280;3299;42.004;24.868;2023-02-26T14:13:38;97225.66;;;19.60;40.91
6532;BME280;3299;42.004;24.868;2023-02-26T14:16:21;97218.19;;;19.36;41.56
6532;BME280;3299;42.004;24.868;2023-02-26T14:26:35;97208.38;;;19.23;41.74
6532;BME280;3299;42.004;24.868;2023-02-26T14:34:19;97222.41;;;18.95;42.76
6532;BME280;3299;42.004;24.868;2023-02-26T14:36:51;97221.75;;;18.93;42.85
6532;BME280;3299;42.004;24.868;2023-02-26T14:39:28;97245.63;;;19.19;42.90
6532;BME280;3299;42.004;24.868;2023-02-26T14:41:58;97210.22;;;18.87;42.40
6532;BME280;3299;42.004;24.868;2023-02-26T14:44:28;97260.75;;;19.17;42.38
6532;BME280;3299;42.004;24.868;2023-02-26T14:46:55;97268.66;;;19.02;42.41
6532;BME280;3299;42.004;24.868;2023-02-26T14:49:31;97240.94;;;18.93;42.13
6532;BME280;3299;42.004;24.868;2023-02-26T14:53:22;97275.75;;;18.87;42.72
6532;BME280;3299;42.004;24.868;2023-02-26T15:00:57;97246.94;;;18.73;43.16
6532;BME280;3299;42.004;24.868;2023-02-26T15:06:29;97259.78;;;18.68;43.87
6532;BME280;3299;42.004;24.868;2023-02-26T15:09:41;97247.13;;;18.57;44.08
6532;BME280;3299;42.004;24.868;2023-02-26T15:18:28;97261.84;;;18.58;44.16
6532;BME280;3299;42.004;24.868;2023-02-26T15:20:29;97272.44;;;18.50;44.09
6532;BME280;3299;42.004;24.868;2023-02-26T15:25:41;97274.50;;;18.54;45.04
6532;BME280;3299;42.004;24.868;2023-02-26T15:28:32;97283.19;;;18.55;44.93
6532;BME280;3299;42.004;24.868;2023-02-26T15:31:00;97271.81;;;18.48;44.70
6532;BME280;3299;42.004;24.868;2023-02-26T15:33:26;97279.84;;;18.61;44.36
6532;BME280;3299;42.004;24.868;2023-02-26T15:35:53;97297.47;;;18.67;44.36
6532;BME280;3299;42.004;24.868;2023-02-26T15:38:19;97298.28;;;18.53;44.79
6532;BME280;3299;42.004;24.868;2023-02-26T15:40:45;97279.75;;;18.54;44.82
6532;BME280;3299;42.004;24.868;2023-02-26T15:43:21;97259.53;;;18.34;45.18
6532;BME280;3299;42.004;24.868;2023-02-26T15:45:51;97274.88;;;18.51;45.41
6532;BME280;3299;42.004;24.868;2023-02-26T15:48:27;97283.47;;;18.60;45.45
6532;BME280;3299;42.004;24.868;2023-02-26T15:51:00;97286.16;;;18.52;45.10
6532;BME280;3299;42.004;24.868;2023-02-26T15:53:33;97287.09;;;18.59;44.90
6532;BME280;3299;42.004;24.868;2023-02-26T15:56:02;97291.31;;;18.60;45.28
6532;BME280;3299;42.004;24.868;2023-02-26T15:58:35;97260.22;;;18.13;45.76
6532;BME280;3299;42.004;24.868;2023-02-26T16:01:03;97267.06;;;18.00;45.73
6532;BME280;3299;42.004;24.868;2023-02-26T16:03:31;97320.00;;;18.24;45.64
6532;BME280;3299;42.004;24.868;2023-02-26T16:05:58;97336.53;;;18.25;46.16